Terminal Aerodrome Forecast
Issued by NWS Melbourne, FL

Current Version | Previous Version | Text Only | Print | Product List | Glossary On
Versions: 1 2 3 4 5 6 7 8 9 10 11 12 13 14
000
FTUS42 KMLB 291900 AAA
TAFDAB
TAF AMD
KDAB 291920Z 2919/3018 25008KT P6SM VCTS SCT035CB SCT080 BKN250
     FM292100 25009KT P6SM SCT035 BKN120 BKN250
     FM300000 24004KT P6SM FEW040 SCT250
     FM301400 01004KT P6SM SCT025=

USA.gov is the U.S. government's official web portal to all federal, state and local government web resources and services.